Terminal Aerodrome Forecast
Issued by NWS

Home | Current Version | Previous Version | Text Only | Print | Product List | Glossary On
Versions: 1 2 3 4 5 6 7 8 9 10 11 12 13 14 15 16 17 18 19 20 21 22 23
000
FTUS45 KPSR 281700
TAFSDL
TAF
KSDL 281740Z 2818/0118 18010KT P6SM VCSH BKN040 OVC060
      TEMPO 2818/2821 -SHRA BKN035
     FM282100 24011G17KT P6SM VCSH SCT050 BKN100
      TEMPO 2821/0101 -SHRA BKN040
     FM010100 20006KT P6SM FEW030 BKN060 OVC100
     FM010600 14006KT P6SM FEW030 BKN050 OVC080 PROB30 0112/0118
      -SHRA BKN035=

USA.gov is the U.S. government's official web portal to all federal, state and local government web resources and services.